createdAt,value
2023-05-21T00:01:07.723Z,15.39
2023-05-21T00:03:36.644Z,15.39
2023-05-21T00:06:04.194Z,15.54
2023-05-21T00:08:31.313Z,15.55
2023-05-21T00:10:58.279Z,15.47
2023-05-21T00:13:25.033Z,15.28
2023-05-21T00:15:52.163Z,15.43
2023-05-21T00:18:18.949Z,15.25
2023-05-21T00:20:46.043Z,15.24
2023-05-21T00:23:12.990Z,15.23
2023-05-21T00:25:39.891Z,15.24
2023-05-21T00:28:06.799Z,15.25
2023-05-21T00:30:33.530Z,15.17
2023-05-21T00:33:02.957Z,15.15
2023-05-21T00:35:30.112Z,15.18
2023-05-21T00:37:57.546Z,15.24
2023-05-21T00:40:24.379Z,15.19
2023-05-21T00:42:51.084Z,15.18
2023-05-21T00:45:17.817Z,15.12
2023-05-21T00:47:45.076Z,15.19
2023-05-21T00:50:12.043Z,15.14
2023-05-21T00:52:42.407Z,15.09
2023-05-21T00:55:10.194Z,15.09
2023-05-21T00:57:37.479Z,15.03
2023-05-21T01:02:40.523Z,15.00
2023-05-21T01:05:28.911Z,15.02
2023-05-21T01:07:57.137Z,15.02
2023-05-21T01:10:24.747Z,14.96
2023-05-21T01:12:51.771Z,14.88
2023-05-21T01:15:18.843Z,14.90
2023-05-21T01:17:49.150Z,14.87
2023-05-21T01:20:20.219Z,14.87
2023-05-21T01:22:53.505Z,14.83
2023-05-21T01:25:20.859Z,14.76
2023-05-21T01:27:47.604Z,14.90
2023-05-21T01:30:15.447Z,14.78
2023-05-21T01:33:17.705Z,14.78
2023-05-21T01:36:09.689Z,14.83
2023-05-21T01:38:44.282Z,14.87
2023-05-21T01:41:12.124Z,14.85
2023-05-21T01:43:42.097Z,14.85
2023-05-21T01:46:11.492Z,14.75
2023-05-21T01:48:39.049Z,14.70
2023-05-21T01:51:06.343Z,14.57
2023-05-21T01:53:33.322Z,14.63
2023-05-21T01:56:01.037Z,14.56
2023-05-21T01:58:27.772Z,14.61
2023-05-21T02:00:54.923Z,14.59
2023-05-21T02:03:22.131Z,14.60
2023-05-21T02:05:48.930Z,14.41
2023-05-21T02:08:15.653Z,14.60
2023-05-21T02:10:42.398Z,14.53
2023-05-21T02:13:09.115Z,14.61
2023-05-21T02:15:36.030Z,14.46
2023-05-21T02:18:03.767Z,14.52
2023-05-21T02:20:31.427Z,14.60
2023-05-21T02:22:58.132Z,14.57
2023-05-21T02:25:24.861Z,14.53
2023-05-21T02:27:53.786Z,14.45
2023-05-21T02:30:20.591Z,14.41
2023-05-21T02:32:49.153Z,14.44
2023-05-21T02:35:16.123Z,14.45
2023-05-21T02:37:44.488Z,14.41
2023-05-21T02:40:11.992Z,14.36
2023-05-21T02:42:40.531Z,14.40
2023-05-21T02:45:14.406Z,14.33
2023-05-21T02:47:41.578Z,14.27
2023-05-21T02:50:09.349Z,14.22
2023-05-21T02:52:36.056Z,14.31
2023-05-21T02:55:03.026Z,14.34
2023-05-21T02:57:29.722Z,14.36
2023-05-21T02:59:56.651Z,14.35
2023-05-21T03:02:23.537Z,14.33
2023-05-21T03:04:51.051Z,14.24
2023-05-21T03:07:20.727Z,14.38
2023-05-21T03:09:47.461Z,14.29
2023-05-21T03:12:14.360Z,14.42
2023-05-21T03:14:44.358Z,14.28
2023-05-21T03:17:14.277Z,14.28
2023-05-21T03:19:44.791Z,14.18
2023-05-21T03:22:11.849Z,14.14
2023-05-21T03:24:39.185Z,14.22
2023-05-21T03:27:07.389Z,14.24
2023-05-21T03:29:34.608Z,14.21
2023-05-21T03:32:01.612Z,14.09
2023-05-21T03:34:28.438Z,14.05
2023-05-21T03:36:55.160Z,14.08
2023-05-21T03:39:21.900Z,14.14
2023-05-21T03:41:48.624Z,14.01
2023-05-21T03:44:15.344Z,13.93
2023-05-21T03:46:42.666Z,13.92
2023-05-21T03:49:09.382Z,13.98
2023-05-21T03:51:36.298Z,13.99
2023-05-21T03:54:03.097Z,13.91
2023-05-21T03:56:29.830Z,13.87
2023-05-21T03:58:56.511Z,14.00
2023-05-21T04:01:23.462Z,14.04
2023-05-21T04:03:50.497Z,14.16
2023-05-21T04:06:17.562Z,14.11
2023-05-21T04:08:44.763Z,13.96
2023-05-21T04:11:11.462Z,13.99
2023-05-21T04:13:38.935Z,14.06
2023-05-21T04:16:09.204Z,14.24
2023-05-21T04:18:36.211Z,14.21
2023-05-21T04:21:02.895Z,14.15
2023-05-21T04:23:29.662Z,14.14
2023-05-21T04:25:56.528Z,14.23
2023-05-21T04:28:24.433Z,14.20
2023-05-21T04:30:52.002Z,14.20
2023-05-21T04:33:20.510Z,14.06
2023-05-21T04:35:50.389Z,14.15
2023-05-21T04:38:20.651Z,14.24
2023-05-21T04:40:50.957Z,14.36
2023-05-21T04:43:18.010Z,14.23
2023-05-21T04:45:44.735Z,14.27
2023-05-21T04:48:12.862Z,14.24
2023-05-21T04:50:41.754Z,14.29
2023-05-21T04:53:08.661Z,14.25
2023-05-21T04:55:40.033Z,14.23
2023-05-21T04:58:07.684Z,14.21
2023-05-21T05:00:34.740Z,14.35
2023-05-21T05:03:01.602Z,14.34
2023-05-21T05:05:28.332Z,14.23
2023-05-21T05:07:55.099Z,14.17
2023-05-21T05:10:22.166Z,14.33
2023-05-21T05:12:51.849Z,14.28
2023-05-21T05:15:18.654Z,14.40
2023-05-21T05:17:45.465Z,14.40
2023-05-21T05:20:12.612Z,14.45
2023-05-21T05:22:39.494Z,14.41
2023-05-21T05:25:06.781Z,14.39
2023-05-21T05:27:35.063Z,14.41
2023-05-21T05:30:03.550Z,14.46
2023-05-21T05:32:30.393Z,14.48
2023-05-21T05:34:57.217Z,14.51
2023-05-21T05:37:24.068Z,14.48
2023-05-21T05:39:50.849Z,14.63
2023-05-21T05:42:17.668Z,14.66
2023-05-21T05:44:44.648Z,14.68
2023-05-21T05:47:11.778Z,14.76
2023-05-21T05:49:38.710Z,14.83
2023-05-21T05:52:06.533Z,14.93
2023-05-21T05:54:33.271Z,14.87
2023-05-21T05:57:00.163Z,15.01
2023-05-21T05:59:27.222Z,15.03
2023-05-21T06:01:53.981Z,15.15
2023-05-21T06:04:20.826Z,15.32
2023-05-21T06:06:48.478Z,15.45
2023-05-21T06:09:15.311Z,15.52
2023-05-21T06:11:42.075Z,15.44
2023-05-21T06:14:08.833Z,15.43
2023-05-21T06:16:35.735Z,15.47
2023-05-21T06:19:02.661Z,15.57
2023-05-21T06:21:29.350Z,15.62
2023-05-21T06:23:56.119Z,15.74
2023-05-21T06:26:23.551Z,15.88
2023-05-21T06:28:50.376Z,15.96
2023-05-21T06:31:17.209Z,15.87
2023-05-21T06:33:44.063Z,16.06
2023-05-21T06:36:11.163Z,15.85
2023-05-21T06:38:37.929Z,16.05
2023-05-21T06:41:04.937Z,16.02
2023-05-21T06:43:31.772Z,16.14
2023-05-21T06:45:58.776Z,16.26
2023-05-21T06:48:25.634Z,16.33
2023-05-21T06:50:52.386Z,16.37
2023-05-21T06:53:19.588Z,16.34
2023-05-21T06:55:46.767Z,16.36
2023-05-21T06:58:13.617Z,16.35
2023-05-21T07:00:40.746Z,16.36
2023-05-21T07:03:07.732Z,16.23
2023-05-21T07:05:35.071Z,16.44
2023-05-21T07:08:02.436Z,16.51
2023-05-21T07:10:29.165Z,16.58
2023-05-21T07:12:56.098Z,16.63
2023-05-21T07:15:22.781Z,16.56
2023-05-21T07:17:49.557Z,16.44
2023-05-21T07:20:16.670Z,16.63
2023-05-21T07:22:44.251Z,16.71
2023-05-21T07:25:11.162Z,16.65
2023-05-21T07:27:39.552Z,16.69
2023-05-21T07:30:09.713Z,16.84
2023-05-21T07:32:36.738Z,16.83
2023-05-21T07:35:03.842Z,16.88
2023-05-21T07:37:30.725Z,16.99
2023-05-21T07:39:59.002Z,16.92
2023-05-21T07:42:27.370Z,17.20
2023-05-21T07:44:54.267Z,17.26
2023-05-21T07:47:22.477Z,17.36
2023-05-21T07:49:49.759Z,17.42
2023-05-21T07:52:16.563Z,17.31
2023-05-21T07:54:43.352Z,17.34
2023-05-21T07:57:10.150Z,17.48
2023-05-21T07:59:36.941Z,17.52
2023-05-21T08:02:03.852Z,17.58
2023-05-21T08:04:30.656Z,17.63
2023-05-21T08:06:57.861Z,17.74
2023-05-21T08:09:24.745Z,17.77
2023-05-21T08:11:51.665Z,17.86
2023-05-21T08:14:18.359Z,18.10
2023-05-21T08:16:46.035Z,18.28
2023-05-21T08:19:13.055Z,18.53
2023-05-21T08:21:39.778Z,18.78
2023-05-21T08:24:07.447Z,18.87
2023-05-21T08:26:34.212Z,19.07
2023-05-21T08:29:01.066Z,19.03
2023-05-21T08:31:28.538Z,19.08
2023-05-21T08:33:56.820Z,18.97
2023-05-21T08:36:24.563Z,19.26
2023-05-21T08:38:51.942Z,19.26
2023-05-21T08:41:22.461Z,19.45
2023-05-21T08:43:56.212Z,19.42
2023-05-21T08:46:25.165Z,19.84
2023-05-21T08:48:56.244Z,19.97
2023-05-21T08:51:22.990Z,19.99
2023-05-21T08:53:50.902Z,20.27
2023-05-21T08:56:19.526Z,20.40
2023-05-21T08:58:47.329Z,20.19
2023-05-21T09:01:14.551Z,20.36
2023-05-21T09:03:41.545Z,20.68
2023-05-21T09:06:11.565Z,20.73
2023-05-21T09:08:39.424Z,20.97
2023-05-21T09:11:06.152Z,20.93
2023-05-21T09:13:33.822Z,20.84
2023-05-21T09:16:00.941Z,20.94
2023-05-21T09:18:30.640Z,20.89
2023-05-21T09:20:57.426Z,21.14
2023-05-21T09:23:24.303Z,21.00
2023-05-21T09:25:52.651Z,21.09
2023-05-21T09:28:19.924Z,21.27
2023-05-21T09:30:48.462Z,21.54
2023-05-21T09:33:26.436Z,21.44
2023-05-21T09:35:53.191Z,21.55
2023-05-21T09:38:22.978Z,21.69
2023-05-21T09:40:50.010Z,21.71
2023-05-21T09:43:17.188Z,21.66
2023-05-21T09:45:55.409Z,21.64
2023-05-21T09:48:43.148Z,21.63
2023-05-21T09:51:17.680Z,21.88
2023-05-21T09:53:56.034Z,22.00
2023-05-21T09:56:24.970Z,22.16
2023-05-21T09:58:54.994Z,22.31
2023-05-21T10:01:21.879Z,22.40
2023-05-21T10:03:53.528Z,22.36
2023-05-21T10:06:21.264Z,22.54
2023-05-21T10:08:49.173Z,22.66
2023-05-21T10:11:16.873Z,22.58
2023-05-21T10:13:47.754Z,22.66
2023-05-21T10:16:15.547Z,22.40
2023-05-21T10:18:42.933Z,22.40
2023-05-21T10:21:09.936Z,22.50
2023-05-21T10:23:37.390Z,22.56
2023-05-21T10:26:04.423Z,22.66
2023-05-21T10:28:31.571Z,22.72
2023-05-21T10:33:25.757Z,22.87
2023-05-21T10:35:53.805Z,23.15
2023-05-21T10:38:23.748Z,23.44
2023-05-21T10:40:50.500Z,23.22
2023-05-21T10:43:48.397Z,23.57
2023-05-21T10:46:56.834Z,23.63
2023-05-21T10:49:52.337Z,23.48
2023-05-21T10:53:10.773Z,23.56
2023-05-21T10:56:06.971Z,23.67
2023-05-21T10:59:12.976Z,23.86
2023-05-21T11:01:41.483Z,24.00
2023-05-21T11:04:08.594Z,24.12
2023-05-21T11:06:35.308Z,24.22
2023-05-21T11:09:15.184Z,24.15
2023-05-21T11:11:45.276Z,24.19
2023-05-21T11:14:40.797Z,24.42
2023-05-21T11:17:15.188Z,24.31
2023-05-21T11:19:51.681Z,24.28
2023-05-21T11:22:26.675Z,24.39
2023-05-21T11:24:55.158Z,24.39
2023-05-21T11:27:37.569Z,24.77
2023-05-21T11:30:25.519Z,24.53
2023-05-21T11:33:19.848Z,24.47
2023-05-21T11:36:11.592Z,24.39
2023-05-21T11:38:38.363Z,24.40
2023-05-21T11:41:05.224Z,24.52
2023-05-21T11:43:32.130Z,24.65
2023-05-21T11:45:59.688Z,24.69
2023-05-21T11:48:27.989Z,24.65
2023-05-21T11:50:56.103Z,24.67
2023-05-21T11:53:23.029Z,24.61
2023-05-21T11:55:57.690Z,24.32
2023-05-21T11:58:24.654Z,24.38
2023-05-21T12:00:51.550Z,24.24
2023-05-21T12:03:18.471Z,24.27
2023-05-21T12:05:49.355Z,24.42
2023-05-21T12:08:28.272Z,24.45
2023-05-21T12:11:02.111Z,24.51
2023-05-21T12:13:29.188Z,24.50
2023-05-21T12:15:56.078Z,24.54
2023-05-21T12:18:22.987Z,24.51
2023-05-21T12:20:52.259Z,24.71
2023-05-21T12:23:21.184Z,24.88
2023-05-21T12:25:48.123Z,24.99
2023-05-21T12:28:15.948Z,24.92
2023-05-21T12:30:42.602Z,24.97
2023-05-21T12:33:09.684Z,25.16
2023-05-21T12:35:37.438Z,25.26
2023-05-21T12:38:04.395Z,25.27
2023-05-21T12:40:39.734Z,25.19
2023-05-21T12:43:07.854Z,25.50
2023-05-21T12:45:34.817Z,25.75
2023-05-21T12:48:02.183Z,25.67
2023-05-21T12:50:29.052Z,25.68
2023-05-21T12:52:58.578Z,25.76
2023-05-21T12:55:28.735Z,25.87
2023-05-21T12:58:11.174Z,25.50
2023-05-21T13:00:38.373Z,25.37
2023-05-21T13:03:06.922Z,25.71
2023-05-21T13:05:34.391Z,25.68
2023-05-21T13:08:01.356Z,25.61
2023-05-21T13:10:28.131Z,25.75
2023-05-21T13:12:54.865Z,25.86
2023-05-21T13:15:21.595Z,25.74
2023-05-21T13:17:50.111Z,25.79
2023-05-21T13:20:21.971Z,26.02
2023-05-21T13:22:50.858Z,25.93
2023-05-21T13:25:22.836Z,26.07
2023-05-21T13:27:50.379Z,26.08
2023-05-21T13:30:17.688Z,25.99
2023-05-21T13:32:45.003Z,26.14
2023-05-21T13:35:12.540Z,26.27
2023-05-21T13:37:40.743Z,26.30
2023-05-21T13:40:11.352Z,26.25
2023-05-21T13:42:41.233Z,26.04
2023-05-21T13:45:09.797Z,26.21
2023-05-21T13:47:39.809Z,26.33
2023-05-21T13:50:08.356Z,26.20
2023-05-21T13:52:35.233Z,26.11
2023-05-21T13:55:01.961Z,26.22
2023-05-21T13:57:31.096Z,26.35
2023-05-21T13:59:58.896Z,26.25
2023-05-21T14:02:26.171Z,26.23
2023-05-21T14:04:53.112Z,25.92
2023-05-21T14:07:20.134Z,26.03
2023-05-21T14:09:47.841Z,26.14
2023-05-21T14:12:14.570Z,26.22
2023-05-21T14:14:41.771Z,26.33
2023-05-21T14:17:08.512Z,26.32
2023-05-21T14:19:35.333Z,26.34
2023-05-21T14:22:02.108Z,26.14
2023-05-21T14:24:28.835Z,26.24
2023-05-21T14:26:55.816Z,26.42
2023-05-21T14:29:22.524Z,26.56
2023-05-21T14:31:49.504Z,26.44
2023-05-21T14:34:16.205Z,26.25
2023-05-21T14:36:43.003Z,26.43
2023-05-21T14:39:09.994Z,26.35
2023-05-21T14:41:39.455Z,26.41
2023-05-21T14:44:06.219Z,26.58
2023-05-21T14:46:33.308Z,26.47
2023-05-21T14:49:01.049Z,26.51
2023-05-21T14:51:27.982Z,26.52
2023-05-21T14:53:55.941Z,26.57
2023-05-21T14:56:23.737Z,26.75
2023-05-21T14:58:50.613Z,26.76
2023-05-21T15:01:17.861Z,26.93
2023-05-21T15:03:44.685Z,26.96
2023-05-21T15:06:11.587Z,26.81
2023-05-21T15:08:38.315Z,26.74
2023-05-21T15:11:07.758Z,26.82
2023-05-21T15:13:34.556Z,26.87
2023-05-21T15:16:01.520Z,27.03
2023-05-21T15:18:29.555Z,27.10
2023-05-21T15:20:56.553Z,27.07
2023-05-21T15:23:23.266Z,27.15
2023-05-21T15:25:50.148Z,26.82
2023-05-21T15:28:17.409Z,26.78
2023-05-21T15:30:44.158Z,26.85
2023-05-21T15:33:11.683Z,26.98
2023-05-21T15:35:38.813Z,26.82
2023-05-21T15:38:05.986Z,26.87
2023-05-21T15:40:32.835Z,26.69
2023-05-21T15:42:59.880Z,26.64
2023-05-21T15:45:26.680Z,26.67
2023-05-21T15:47:53.539Z,26.72
2023-05-21T15:50:20.381Z,26.73
2023-05-21T15:52:47.220Z,26.76
2023-05-21T15:55:14.422Z,26.53
2023-05-21T15:57:41.233Z,26.71
2023-05-21T16:00:09.860Z,26.83
2023-05-21T16:02:37.070Z,26.85
2023-05-21T16:05:04.060Z,26.88
2023-05-21T16:07:30.873Z,26.91
2023-05-21T16:09:57.617Z,26.90
2023-05-21T16:12:24.462Z,26.67
2023-05-21T16:14:51.244Z,26.64
2023-05-21T16:17:19.758Z,26.72
2023-05-21T16:19:47.767Z,26.77
2023-05-21T16:22:14.740Z,26.82
2023-05-21T16:24:41.442Z,27.01
2023-05-21T16:27:08.384Z,26.71
2023-05-21T16:29:35.322Z,26.68
2023-05-21T16:32:02.255Z,26.57
2023-05-21T16:34:29.218Z,26.55
2023-05-21T16:36:56.169Z,26.43
2023-05-21T16:39:22.862Z,26.44
2023-05-21T16:41:49.683Z,26.23
2023-05-21T16:44:16.538Z,26.23
2023-05-21T16:46:43.254Z,26.03
2023-05-21T16:49:10.099Z,26.02
2023-05-21T16:51:36.944Z,26.06
2023-05-21T16:54:05.008Z,25.99
2023-05-21T16:56:31.996Z,25.93
2023-05-21T16:58:58.852Z,26.00
2023-05-21T17:01:25.827Z,25.96
2023-05-21T17:03:53.383Z,25.80
2023-05-21T17:06:20.284Z,25.79
2023-05-21T17:08:47.214Z,25.72
2023-05-21T17:11:13.981Z,25.76
2023-05-21T17:13:40.767Z,25.65
2023-05-21T17:16:07.545Z,25.75
2023-05-21T17:18:34.418Z,25.70
2023-05-21T17:21:01.198Z,25.60
2023-05-21T17:23:27.913Z,25.48
2023-05-21T17:25:54.927Z,25.52
2023-05-21T17:28:22.010Z,25.47
2023-05-21T17:30:49.681Z,25.37
2023-05-21T17:33:16.786Z,25.42
2023-05-21T17:35:43.936Z,25.35
2023-05-21T17:38:10.741Z,25.26
2023-05-21T17:40:37.582Z,25.32
2023-05-21T17:43:05.301Z,25.16
2023-05-21T17:45:32.129Z,25.18
2023-05-21T17:48:00.420Z,24.98
2023-05-21T17:50:27.754Z,25.00
2023-05-21T17:52:54.459Z,24.99
2023-05-21T17:55:21.247Z,25.00
2023-05-21T17:57:48.083Z,24.81
2023-05-21T18:00:15.076Z,24.72
2023-05-21T18:02:42.108Z,24.71
2023-05-21T18:05:09.131Z,24.54
2023-05-21T18:07:37.252Z,24.39
2023-05-21T18:10:04.252Z,24.42
2023-05-21T18:12:31.257Z,24.38
2023-05-21T18:14:57.988Z,24.34
2023-05-21T18:17:24.782Z,24.22
2023-05-21T18:19:51.592Z,24.14
2023-05-21T18:22:18.335Z,24.08
2023-05-21T18:24:45.089Z,24.09
2023-05-21T18:27:12.603Z,24.09
2023-05-21T18:29:39.265Z,24.07
2023-05-21T18:32:06.645Z,23.93
2023-05-21T18:34:33.531Z,23.89
2023-05-21T18:37:00.657Z,23.92
2023-05-21T18:39:28.250Z,23.71
2023-05-21T18:42:11.428Z,23.74
2023-05-21T18:44:39.466Z,23.74
2023-05-21T18:47:08.027Z,23.73
2023-05-21T18:49:36.525Z,23.73
2023-05-21T18:52:04.314Z,23.58
2023-05-21T18:54:31.420Z,23.51
2023-05-21T18:57:00.600Z,23.60
2023-05-21T18:59:28.760Z,23.51
2023-05-21T19:01:56.072Z,23.43
2023-05-21T19:04:22.926Z,23.30
2023-05-21T19:06:49.706Z,23.46
2023-05-21T19:09:16.360Z,23.38
2023-05-21T19:11:43.352Z,23.29
2023-05-21T19:14:10.063Z,23.29
2023-05-21T19:16:37.053Z,23.28
2023-05-21T19:19:04.460Z,23.19
2023-05-21T19:21:31.759Z,23.20
2023-05-21T19:23:58.790Z,23.14
2023-05-21T19:26:25.664Z,23.02
2023-05-21T19:28:54.672Z,22.98
2023-05-21T19:31:25.691Z,23.03
2023-05-21T19:33:52.678Z,22.94
2023-05-21T19:36:21.599Z,22.86
2023-05-21T19:38:49.471Z,22.82
2023-05-21T19:41:16.994Z,22.87
2023-05-21T19:43:44.460Z,22.74
2023-05-21T19:46:11.672Z,22.62
2023-05-21T19:48:38.885Z,22.58
2023-05-21T19:51:05.713Z,22.52
2023-05-21T19:53:32.461Z,22.44
2023-05-21T19:55:59.257Z,22.38
2023-05-21T19:58:29.700Z,22.46
2023-05-21T20:00:58.591Z,22.35
2023-05-21T20:03:26.861Z,22.22
2023-05-21T20:05:53.904Z,22.15
2023-05-21T20:08:21.008Z,22.04
2023-05-21T20:10:51.175Z,21.98
2023-05-21T20:13:18.598Z,22.04
2023-05-21T20:15:45.283Z,22.00
2023-05-21T20:18:13.162Z,22.04
2023-05-21T20:20:41.608Z,21.97
2023-05-21T20:23:08.821Z,22.02
2023-05-21T20:25:35.527Z,21.96
2023-05-21T20:28:03.874Z,21.83
2023-05-21T20:30:35.196Z,21.93
2023-05-21T20:33:03.145Z,22.02
2023-05-21T20:35:30.439Z,21.88
2023-05-21T20:37:57.190Z,21.88
2023-05-21T20:40:23.904Z,21.79
2023-05-21T20:42:53.680Z,21.67
2023-05-21T20:45:21.250Z,21.77
2023-05-21T20:47:48.658Z,21.71
2023-05-21T20:50:17.905Z,21.59
2023-05-21T20:52:47.018Z,21.78
2023-05-21T20:55:14.922Z,21.63
2023-05-21T20:57:41.848Z,21.57
2023-05-21T21:00:11.271Z,21.47
2023-05-21T21:02:40.028Z,21.47
2023-05-21T21:05:10.712Z,21.40
2023-05-21T21:07:37.875Z,21.49
2023-05-21T21:10:05.611Z,21.36
2023-05-21T21:12:32.473Z,21.38
2023-05-21T21:14:59.175Z,21.38
2023-05-21T21:17:25.951Z,21.38
2023-05-21T21:19:52.949Z,21.39
2023-05-21T21:22:19.811Z,21.29
2023-05-21T21:24:47.525Z,21.20
2023-05-21T21:27:14.332Z,21.20
2023-05-21T21:29:41.035Z,21.08
2023-05-21T21:32:08.210Z,21.01
2023-05-21T21:34:34.907Z,20.92
2023-05-21T21:37:01.654Z,20.90
2023-05-21T21:39:28.367Z,20.90
2023-05-21T21:41:55.052Z,20.90
2023-05-21T21:44:21.773Z,20.96
2023-05-21T21:46:48.512Z,20.94
2023-05-21T21:49:17.661Z,20.97
2023-05-21T21:51:48.951Z,20.90
2023-05-21T21:54:16.384Z,20.74
2023-05-21T21:56:43.065Z,20.71
2023-05-21T21:59:09.759Z,20.72
2023-05-21T22:01:36.972Z,20.46
2023-05-21T22:04:03.898Z,20.47
2023-05-21T22:06:31.553Z,20.48
2023-05-21T22:08:58.304Z,20.24
2023-05-21T22:11:27.219Z,20.21
2023-05-21T22:13:54.066Z,20.30
2023-05-21T22:16:25.401Z,20.15
2023-05-21T22:18:54.461Z,19.99
2023-05-21T22:21:21.735Z,19.94
2023-05-21T22:23:48.432Z,19.92
2023-05-21T22:26:15.136Z,19.83
2023-05-21T22:28:42.337Z,19.74
2023-05-21T22:31:09.148Z,19.74
2023-05-21T22:33:36.884Z,19.64
2023-05-21T22:36:03.800Z,19.54
2023-05-21T22:38:30.756Z,19.50
2023-05-21T22:40:57.426Z,19.48
2023-05-21T22:43:26.552Z,19.58
2023-05-21T22:45:53.451Z,19.65
2023-05-21T22:48:22.290Z,19.55
2023-05-21T22:50:50.471Z,19.42
2023-05-21T22:53:17.757Z,19.38
2023-05-21T22:55:44.646Z,19.47
2023-05-21T22:58:11.346Z,19.26
2023-05-21T23:00:38.327Z,19.24
2023-05-21T23:03:05.337Z,19.20
2023-05-21T23:05:32.151Z,19.11
2023-05-21T23:07:58.875Z,19.13
2023-05-21T23:10:25.656Z,19.16
2023-05-21T23:12:52.593Z,19.38
2023-05-21T23:15:19.432Z,19.27
2023-05-21T23:17:46.330Z,19.07
2023-05-21T23:20:13.430Z,19.06
2023-05-21T23:22:40.184Z,19.12
2023-05-21T23:25:07.988Z,19.18
2023-05-21T23:27:34.660Z,19.07
2023-05-21T23:30:01.437Z,19.10
2023-05-21T23:32:28.143Z,19.25
2023-05-21T23:34:54.830Z,19.20
2023-05-21T23:37:21.961Z,19.22
2023-05-21T23:39:49.890Z,19.09
2023-05-21T23:42:17.255Z,18.92
2023-05-21T23:44:44.109Z,18.85
2023-05-21T23:47:10.984Z,18.88
2023-05-21T23:49:37.789Z,18.93
2023-05-21T23:52:05.409Z,18.93
2023-05-21T23:54:32.112Z,19.00
2023-05-21T23:56:59.008Z,18.97
2023-05-21T23:59:26.034Z,18.85
